Pola de Siero, Spain
Current Conditions -  °F | °C
As of 10:00 AM on Wednesday 26 Nov 2014 (Local Time) from LEAS Reporting Station
Broken Clouds Broken Clouds  
Wind Chill: 52°   Ceiling: 5700
Heat Index: 52°   Visibility: 6mi
Dew Point: 50°   Wind: 5mph
Humidity: 94%   Direction: 240°WSW
Pressure: 29.94"   Gusts: NA
Location:  43.39°N, 5.66°W
Report Text: LEAS 260900Z 24004KT 9000 FEW030 BKN057 11/10 Q1014 NOSIG
Loading
Personal Weather Stations






























Interactive Weather Map New forecast layout! Learn more

10-Day Weather Forecast

Advertisements
Track Severe Weather on mobile